ADDS METAR Data INFO
IDs: Format: Raw Decoded Include TAF

Data at: 1343 UTC 21 Nov 2017

KFTW 211253Z 16008KT 10SM CLR 11/08 A2984 RMK AO2 SLP101 T01060083
KFTW 211153Z 16007KT 10SM CLR 09/06 A2983 RMK AO2 SLP097 T00890061 10117 20089 55011
KFTW 211053Z 14007KT 10SM CLR 10/05 A2982 RMK AO2 SLP094 T01000050
KFTW 210953Z 14007KT 10SM CLR 09/03 A2983 RMK AO2 SLP097 T00940033
KFTW 210853Z 16006KT 10SM CLR 10/02 A2986 RMK AO2 SLP108 T01000022 56016
KFTW 210753Z 15005KT 10SM CLR 11/03 A2987 RMK AO2 SLP110 T01060028
KFTW 210653Z 15007KT 10SM CLR 11/02 A2988 RMK AO2 SLP114 T01110022
KFTW 210553Z 17006KT 10SM CLR 11/02 A2991 RMK AO2 SLP124 T01060022 10156 20100 401940050 58008
KFTW 210453Z 16007KT 10SM CLR 11/02 A2993 RMK AO2 SLP132 T01060017
KFTW 210353Z 16006KT 10SM CLR 12/01 A2995 RMK AO2 SLP139 T01220011
KFTW 210253Z 16010KT 10SM CLR 13/01 A2993 RMK AO2 SLP135 T01280011 57011
KFTW 210153Z 16012KT 10SM CLR 14/01 A2994 RMK AO2 SLP138 T01440006
KFTW 210053Z 14009KT 10SM CLR 14/01 A2996 RMK AO2 SLP143 T01440011
KFTW 202353Z 16011KT 10SM CLR 16/01 A2997 RMK AO2 SLP146 T01560006 10194 20156 58008
KFTW 202253Z 16011KT 10SM CLR 17/00 A2998 RMK AO2 SLP148 T01720000
KFTW 202153Z 17015G23KT 10SM CLR 18/M01 A2998 RMK AO2 SLP150 T01831006
KFTW 202053Z 17012G22KT 10SM CLR 19/M01 A2999 RMK AO2 PK WND 18026/2038 SLP153 T01941006 56039
KFTW 201953Z 17014G21KT 10SM CLR 19/01 A3001 RMK AO2 SLP160 T01890006
KFTW 201853Z 18016G21KT 10SM CLR 18/01 A3005 RMK AO2 SLP175 T01830006
KFTW 201753Z 18016G24KT 10SM CLR 18/00 A3011 RMK AO2 PK WND 17026/1712 SLP193 T01780000 10178 20050 58028
KFTW 201653Z 17013KT 10SM CLR 17/00 A3015 RMK AO2 SLP207 T01670000
KFTW 201553Z 17012G19KT 10SM CLR 14/01 A3017 RMK AO2 SLP216 T01390006
KFTW 201453Z 18003KT 10SM CLR 09/02 A3019 RMK AO2 SLP223 T00940022 50012
KFTW 201353Z 16004KT 10SM CLR 06/02 A3020 RMK AO2 SLP225 T00610017
KFTW 201253Z 18005KT 10SM CLR 07/01 A3018 RMK AO2 SLP218 T00670006
KFTW 201153Z 14004KT 9SM CLR 06/M01 A3016 RMK AO2 SLP211 T00561006 10089 20056 56007
KFTW 201053Z 00000KT 10SM CLR 07/01 A3016 RMK AO2 SLP211 T00670006
KFTW 200953Z 00000KT 10SM CLR 08/M01 A3017 RMK AO2 SLP215 T00781006
KFTW 200853Z 00000KT 10SM CLR 07/00 A3018 RMK AO2 SLP218 T00720000 58011
KFTW 200753Z 16003KT 10SM R16/4000V5000FT CLR 08/M01 A3019 RMK AO2 SLP221 T00831006
KFTW 200653Z 00000KT 10SM R16/4000VP6000FT CLR 08/00 A3021 RMK AO2 SLP229 T00830000
KFTW 200553Z 00000KT 10SM R16/4500VP6000FT CLR 08/01 A3021 RMK AO2 SLP229 T00830011 10144 20078 401780044 58004
KFTW 200453Z 00000KT 10SM CLR 09/01 A3022 RMK AO2 SLP232 T00940006
KFTW 200353Z 00000KT 10SM CLR 10/M01 A3023 RMK AO2 SLP234 T01001006
KFTW 200253Z 00000KT 10SM CLR 11/M01 A3023 RMK AO2 SLP234 T01111006 51001
KFTW 200153Z 19003KT 10SM CLR 12/M01 A3023 RMK AO2 SLP235 T01171011